sensor_id;sensor_type;location;lat;lon;timestamp;pressure;altitude;pressure_sealevel;temperature;humidity
58373;BME280;44177;43.356;27.672;2024-01-07T00:01:31;97152.72;;;11.32;94.81
58373;BME280;44177;43.356;27.672;2024-01-07T00:03:56;97152.31;;;11.30;95.16
58373;BME280;44177;43.356;27.672;2024-01-07T00:06:21;97144.53;;;11.32;95.09
58373;BME280;44177;43.356;27.672;2024-01-07T00:08:47;97145.28;;;11.29;94.93
58373;BME280;44177;43.356;27.672;2024-01-07T00:11:13;97152.31;;;11.30;95.69
58373;BME280;44177;43.356;27.672;2024-01-07T00:13:39;97159.66;;;11.26;95.69
58373;BME280;44177;43.356;27.672;2024-01-07T00:16:04;97160.06;;;11.28;96.25
58373;BME280;44177;43.356;27.672;2024-01-07T00:18:30;97160.09;;;11.32;96.11
58373;BME280;44177;43.356;27.672;2024-01-07T00:20:55;97154.25;;;11.33;96.28
58373;BME280;44177;43.356;27.672;2024-01-07T00:23:20;97141.28;;;11.19;96.38
58373;BME280;44177;43.356;27.672;2024-01-07T00:25:47;97137.31;;;11.13;96.63
58373;BME280;44177;43.356;27.672;2024-01-07T00:28:12;97142.06;;;11.20;97.16
58373;BME280;44177;43.356;27.672;2024-01-07T00:30:38;97134.97;;;11.12;96.84
58373;BME280;44177;43.356;27.672;2024-01-07T00:33:03;97132.25;;;11.12;97.10
58373;BME280;44177;43.356;27.672;2024-01-07T00:35:29;97142.41;;;11.15;97.93
58373;BME280;44177;43.356;27.672;2024-01-07T00:37:54;97150.66;;;11.22;96.79
58373;BME280;44177;43.356;27.672;2024-01-07T00:40:25;97130.41;;;11.23;97.40
58373;BME280;44177;43.356;27.672;2024-01-07T00:42:51;97109.34;;;11.24;97.22
58373;BME280;44177;43.356;27.672;2024-01-07T00:45:20;97119.06;;;11.21;97.51
58373;BME280;44177;43.356;27.672;2024-01-07T00:47:46;97124.91;;;11.19;97.54
58373;BME280;44177;43.356;27.672;2024-01-07T00:50:12;97137.31;;;11.13;97.82
58373;BME280;44177;43.356;27.672;2024-01-07T00:52:37;97133.44;;;11.14;98.24
58373;BME280;44177;43.356;27.672;2024-01-07T00:55:06;97103.25;;;10.96;98.12
58373;BME280;44177;43.356;27.672;2024-01-07T00:57:32;97117.81;;;11.11;98.07
58373;BME280;44177;43.356;27.672;2024-01-07T00:59:59;97117.72;;;11.00;98.67
58373;BME280;44177;43.356;27.672;2024-01-07T01:02:25;97088.31;;;10.83;98.62
58373;BME280;44177;43.356;27.672;2024-01-07T01:04:51;97095.09;;;11.00;97.87
58373;BME280;44177;43.356;27.672;2024-01-07T01:07:16;97100.28;;;11.12;97.35
58373;BME280;44177;43.356;27.672;2024-01-07T01:09:42;97103.00;;;11.12;96.78
58373;BME280;44177;43.356;27.672;2024-01-07T01:12:07;97086.94;;;11.03;96.41
58373;BME280;44177;43.356;27.672;2024-01-07T01:14:32;97103.06;;;11.19;95.81
58373;BME280;44177;43.356;27.672;2024-01-07T01:16:58;97107.72;;;11.19;95.82
58373;BME280;44177;43.356;27.672;2024-01-07T01:19:24;97106.16;;;11.18;95.77
58373;BME280;44177;43.356;27.672;2024-01-07T01:21:49;97107.31;;;11.17;95.98
58373;BME280;44177;43.356;27.672;2024-01-07T01:24:15;97097.22;;;11.21;96.02
58373;BME280;44177;43.356;27.672;2024-01-07T01:26:40;97111.28;;;11.23;95.27
58373;BME280;44177;43.356;27.672;2024-01-07T01:29:05;97112.50;;;11.29;95.07
58373;BME280;44177;43.356;27.672;2024-01-07T01:31:31;97112.56;;;11.36;94.60
58373;BME280;44177;43.356;27.672;2024-01-07T01:33:56;97097.72;;;11.34;94.84
58373;BME280;44177;43.356;27.672;2024-01-07T01:36:23;97091.09;;;11.31;95.00
58373;BME280;44177;43.356;27.672;2024-01-07T01:38:49;97094.97;;;11.30;95.09
58373;BME280;44177;43.356;27.672;2024-01-07T01:41:16;97075.81;;;11.23;95.41
58373;BME280;44177;43.356;27.672;2024-01-07T01:43:41;97072.22;;;11.15;95.80
58373;BME280;44177;43.356;27.672;2024-01-07T01:46:07;97078.78;;;11.07;95.94
58373;BME280;44177;43.356;27.672;2024-01-07T01:48:33;97063.19;;;11.04;96.16
58373;BME280;44177;43.356;27.672;2024-01-07T01:51:00;97056.88;;;11.00;96.03
58373;BME280;44177;43.356;27.672;2024-01-07T01:53:26;97053.81;;;11.05;95.53
58373;BME280;44177;43.356;27.672;2024-01-07T01:55:52;97058.91;;;11.06;95.64
58373;BME280;44177;43.356;27.672;2024-01-07T01:58:19;97074.94;;;11.12;95.40
58373;BME280;44177;43.356;27.672;2024-01-07T02:00:45;97025.47;;;10.72;95.51
58373;BME280;44177;43.356;27.672;2024-01-07T02:03:10;97065.41;;;10.91;96.07
58373;BME280;44177;43.356;27.672;2024-01-07T02:05:36;97063.41;;;10.88;96.49
58373;BME280;44177;43.356;27.672;2024-01-07T02:08:02;97080.88;;;10.80;96.93
58373;BME280;44177;43.356;27.672;2024-01-07T02:10:27;97077.66;;;10.70;97.18
58373;BME280;44177;43.356;27.672;2024-01-07T02:13:00;97058.00;;;10.54;97.42
58373;BME280;44177;43.356;27.672;2024-01-07T02:15:25;97061.13;;;10.52;98.41
58373;BME280;44177;43.356;27.672;2024-01-07T02:17:51;97059.13;;;10.46;98.53
58373;BME280;44177;43.356;27.672;2024-01-07T02:20:16;97061.66;;;10.31;99.26
58373;BME280;44177;43.356;27.672;2024-01-07T02:22:41;97055.34;;;10.23;99.82
58373;BME280;44177;43.356;27.672;2024-01-07T02:25:07;97052.16;;;10.18;100.00
58373;BME280;44177;43.356;27.672;2024-01-07T02:27:34;97041.19;;;10.10;100.00
58373;BME280;44177;43.356;27.672;2024-01-07T02:29:59;97052.50;;;10.13;100.00
58373;BME280;44177;43.356;27.672;2024-01-07T02:32:25;97052.16;;;10.18;100.00
58373;BME280;44177;43.356;27.672;2024-01-07T02:34:50;97046.75;;;10.21;99.77
58373;BME280;44177;43.356;27.672;2024-01-07T02:37:16;97043.69;;;10.26;99.69
58373;BME280;44177;43.356;27.672;2024-01-07T02:39:41;97039.03;;;10.27;99.77
58373;BME280;44177;43.356;27.672;2024-01-07T02:42:07;97035.16;;;10.28;99.21
58373;BME280;44177;43.356;27.672;2024-01-07T02:44:32;97031.59;;;10.24;99.74
58373;BME280;44177;43.356;27.672;2024-01-07T02:46:58;97005.75;;;10.10;99.04
58373;BME280;44177;43.356;27.672;2024-01-07T02:49:23;97028.94;;;10.31;99.25
58373;BME280;44177;43.356;27.672;2024-01-07T02:51:49;97032.94;;;10.37;98.46
58373;BME280;44177;43.356;27.672;2024-01-07T02:54:15;97039.81;;;10.27;98.68
58373;BME280;44177;43.356;27.672;2024-01-07T02:56:40;97042.09;;;10.22;98.64
58373;BME280;44177;43.356;27.672;2024-01-07T02:59:06;97045.63;;;10.26;98.62
58373;BME280;44177;43.356;27.672;2024-01-07T03:01:32;97043.69;;;10.26;98.64
58373;BME280;44177;43.356;27.672;2024-01-07T03:03:57;97026.47;;;10.19;98.67
58373;BME280;44177;43.356;27.672;2024-01-07T03:06:26;97025.63;;;10.15;98.53
58373;BME280;44177;43.356;27.672;2024-01-07T03:08:52;97031.84;;;10.11;99.01
58373;BME280;44177;43.356;27.672;2024-01-07T03:11:17;97026.66;;;10.03;99.03
58373;BME280;44177;43.356;27.672;2024-01-07T03:13:42;97008.63;;;9.91;99.24
58373;BME280;44177;43.356;27.672;2024-01-07T03:16:08;96993.28;;;9.75;99.56
58373;BME280;44177;43.356;27.672;2024-01-07T03:18:33;96956.88;;;9.57;100.00
58373;BME280;44177;43.356;27.672;2024-01-07T03:20:59;97018.38;;;9.92;100.00
58373;BME280;44177;43.356;27.672;2024-01-07T03:23:24;97014.31;;;9.78;100.00
58373;BME280;44177;43.356;27.672;2024-01-07T03:25:50;97005.81;;;9.84;100.00
58373;BME280;44177;43.356;27.672;2024-01-07T03:28:15;97001.13;;;9.80;100.00
58373;BME280;44177;43.356;27.672;2024-01-07T03:30:40;97011.28;;;9.84;100.00
58373;BME280;44177;43.356;27.672;2024-01-07T03:33:06;97009.81;;;9.90;100.00
58373;BME280;44177;43.356;27.672;2024-01-07T03:35:31;97005.50;;;9.89;100.00
58373;BME280;44177;43.356;27.672;2024-01-07T03:37:57;96996.19;;;9.90;100.00
58373;BME280;44177;43.356;27.672;2024-01-07T03:40:22;96995.34;;;9.86;100.00
58373;BME280;44177;43.356;27.672;2024-01-07T03:42:48;96999.97;;;9.82;100.00
58373;BME280;44177;43.356;27.672;2024-01-07T03:45:14;96996.06;;;9.83;100.00
58373;BME280;44177;43.356;27.672;2024-01-07T03:47:39;96997.25;;;9.82;100.00
58373;BME280;44177;43.356;27.672;2024-01-07T03:50:05;96986.38;;;9.82;99.93
58373;BME280;44177;43.356;27.672;2024-01-07T03:52:30;96991.06;;;9.85;99.54
58373;BME280;44177;43.356;27.672;2024-01-07T03:54:56;96986.88;;;9.94;98.78
58373;BME280;44177;43.356;27.672;2024-01-07T03:57:21;96982.56;;;9.90;98.74
58373;BME280;44177;43.356;27.672;2024-01-07T03:59:47;96974.78;;;9.92;98.21
58373;BME280;44177;43.356;27.672;2024-01-07T04:02:12;96973.25;;;9.94;98.60
58373;BME280;44177;43.356;27.672;2024-01-07T04:04:41;96970.13;;;9.92;97.83
58373;BME280;44177;43.356;27.672;2024-01-07T04:07:07;96937.16;;;9.67;97.88
58373;BME280;44177;43.356;27.672;2024-01-07T04:09:32;96977.47;;;9.88;97.92
58373;BME280;44177;43.356;27.672;2024-01-07T04:11:58;96961.44;;;9.79;98.09
58373;BME280;44177;43.356;27.672;2024-01-07T04:14:23;96967.69;;;9.84;97.85
58373;BME280;44177;43.356;27.672;2024-01-07T04:16:48;96973.47;;;9.78;98.26
58373;BME280;44177;43.356;27.672;2024-01-07T04:19:14;96975.84;;;9.84;98.38
58373;BME280;44177;43.356;27.672;2024-01-07T04:21:39;96982.06;;;9.80;98.45
58373;BME280;44177;43.356;27.672;2024-01-07T04:24:05;96979.34;;;9.80;98.28
58373;BME280;44177;43.356;27.672;2024-01-07T04:26:30;96974.63;;;9.77;98.10
58373;BME280;44177;43.356;27.672;2024-01-07T04:28:56;96962.13;;;9.73;98.24
58373;BME280;44177;43.356;27.672;2024-01-07T04:31:21;96949.22;;;9.66;98.47
58373;BME280;44177;43.356;27.672;2024-01-07T04:33:47;96955.81;;;9.65;98.78
58373;BME280;44177;43.356;27.672;2024-01-07T04:36:12;96952.66;;;9.63;98.36
58373;BME280;44177;43.356;27.672;2024-01-07T04:38:38;96950.75;;;9.67;98.85
58373;BME280;44177;43.356;27.672;2024-01-07T04:41:03;96963.66;;;9.70;98.09
58373;BME280;44177;43.356;27.672;2024-01-07T04:43:29;96954.31;;;9.71;97.49
58373;BME280;44177;43.356;27.672;2024-01-07T04:45:55;96948.09;;;9.71;96.79
58373;BME280;44177;43.356;27.672;2024-01-07T04:48:20;96941.78;;;9.63;96.73
58373;BME280;44177;43.356;27.672;2024-01-07T04:50:46;96946.50;;;9.66;95.94
58373;BME280;44177;43.356;27.672;2024-01-07T04:53:11;96942.56;;;9.63;95.10
58373;BME280;44177;43.356;27.672;2024-01-07T04:55:37;96941.06;;;9.66;94.91
58373;BME280;44177;43.356;27.672;2024-01-07T04:58:02;96946.50;;;9.66;93.83
58373;BME280;44177;43.356;27.672;2024-01-07T05:00:30;96934.84;;;9.69;92.35
58373;BME280;44177;43.356;27.672;2024-01-07T05:02:55;96930.94;;;9.67;91.57
58373;BME280;44177;43.356;27.672;2024-01-07T05:05:20;96934.63;;;9.82;90.01
58373;BME280;44177;43.356;27.672;2024-01-07T05:07:46;96931.16;;;9.88;89.32
58373;BME280;44177;43.356;27.672;2024-01-07T05:10:11;96920.22;;;9.85;88.22
58373;BME280;44177;43.356;27.672;2024-01-07T05:12:37;96921.09;;;9.92;88.42
58373;BME280;44177;43.356;27.672;2024-01-07T05:15:03;96911.81;;;9.97;88.02
58373;BME280;44177;43.356;27.672;2024-01-07T05:17:29;96911.81;;;9.97;86.86
58373;BME280;44177;43.356;27.672;2024-01-07T05:19:55;96916.50;;;10.00;86.13
58373;BME280;44177;43.356;27.672;2024-01-07T05:22:21;96914.94;;;9.99;86.15
58373;BME280;44177;43.356;27.672;2024-01-07T05:24:46;96911.00;;;9.96;86.64
58373;BME280;44177;43.356;27.672;2024-01-07T05:27:12;96895.41;;;9.90;86.60
58373;BME280;44177;43.356;27.672;2024-01-07T05:29:37;96892.31;;;9.95;86.18
58373;BME280;44177;43.356;27.672;2024-01-07T05:32:03;96896.22;;;9.94;86.20
58373;BME280;44177;43.356;27.672;2024-01-07T05:34:29;96889.94;;;9.90;86.68
58373;BME280;44177;43.356;27.672;2024-01-07T05:36:54;96889.94;;;9.90;86.66
58373;BME280;44177;43.356;27.672;2024-01-07T05:39:20;96888.34;;;9.85;87.27
58373;BME280;44177;43.356;27.672;2024-01-07T05:41:46;96873.84;;;9.77;87.05
58373;BME280;44177;43.356;27.672;2024-01-07T05:44:11;96878.19;;;9.82;87.35
58373;BME280;44177;43.356;27.672;2024-01-07T05:46:40;96860.59;;;9.72;86.97
58373;BME280;44177;43.356;27.672;2024-01-07T05:49:06;96863.81;;;9.82;87.08
58373;BME280;44177;43.356;27.672;2024-01-07T05:51:32;96874.69;;;9.82;86.95
58373;BME280;44177;43.356;27.672;2024-01-07T05:53:57;96868.00;;;9.75;86.91
58373;BME280;44177;43.356;27.672;2024-01-07T05:56:23;96861.00;;;9.74;86.71
58373;BME280;44177;43.356;27.672;2024-01-07T05:58:49;96864.13;;;9.76;86.67
58373;BME280;44177;43.356;27.672;2024-01-07T06:01:20;96875.91;;;9.88;86.28
58373;BME280;44177;43.356;27.672;2024-01-07T06:03:46;96867.38;;;9.89;86.04
58373;BME280;44177;43.356;27.672;2024-01-07T06:06:15;96867.75;;;9.88;86.42
58373;BME280;44177;43.356;27.672;2024-01-07T06:08:42;96853.31;;;9.87;85.76
58373;BME280;44177;43.356;27.672;2024-01-07T06:11:07;96856.50;;;9.93;86.55
58373;BME280;44177;43.356;27.672;2024-01-07T06:13:33;96864.66;;;9.93;86.20
58373;BME280;44177;43.356;27.672;2024-01-07T06:15:59;96857.66;;;9.92;85.88
58373;BME280;44177;43.356;27.672;2024-01-07T06:18:24;96854.19;;;9.95;85.89
58373;BME280;44177;43.356;27.672;2024-01-07T06:20:49;96847.16;;;9.94;85.92
58373;BME280;44177;43.356;27.672;2024-01-07T06:23:15;96845.59;;;9.93;86.37
58373;BME280;44177;43.356;27.672;2024-01-07T06:25:40;96845.22;;;9.94;86.08
58373;BME280;44177;43.356;27.672;2024-01-07T06:28:06;96828.47;;;9.89;85.91
58373;BME280;44177;43.356;27.672;2024-01-07T06:30:31;96843.28;;;9.95;86.08
58373;BME280;44177;43.356;27.672;2024-01-07T06:32:57;96835.50;;;9.93;85.94
58373;BME280;44177;43.356;27.672;2024-01-07T06:35:22;96832.38;;;9.91;86.23
58373;BME280;44177;43.356;27.672;2024-01-07T06:37:48;96826.13;;;9.91;86.71
58373;BME280;44177;43.356;27.672;2024-01-07T06:40:14;96827.69;;;9.92;86.14
58373;BME280;44177;43.356;27.672;2024-01-07T06:42:39;96822.25;;;9.92;86.40
58373;BME280;44177;43.356;27.672;2024-01-07T06:45:06;96837.81;;;9.91;87.06
58373;BME280;44177;43.356;27.672;2024-01-07T06:47:32;96823.00;;;9.89;86.86
58373;BME280;44177;43.356;27.672;2024-01-07T06:49:57;96803.53;;;9.87;87.42
58373;BME280;44177;43.356;27.672;2024-01-07T06:52:22;96797.34;;;9.90;87.36
58373;BME280;44177;43.356;27.672;2024-01-07T06:54:48;96803.94;;;9.89;87.83
58373;BME280;44177;43.356;27.672;2024-01-07T06:57:13;96803.16;;;9.88;88.22
58373;BME280;44177;43.356;27.672;2024-01-07T06:59:39;96791.47;;;9.88;88.47
58373;BME280;44177;43.356;27.672;2024-01-07T07:02:04;96784.84;;;9.85;88.62
58373;BME280;44177;43.356;27.672;2024-01-07T07:04:30;96765.41;;;9.87;88.35
58373;BME280;44177;43.356;27.672;2024-01-07T07:06:55;96755.28;;;9.91;88.25
58373;BME280;44177;43.356;27.672;2024-01-07T07:09:22;96738.22;;;9.94;88.43
58373;BME280;44177;43.356;27.672;2024-01-07T07:11:48;96724.91;;;9.82;88.11
58373;BME280;44177;43.356;27.672;2024-01-07T07:14:13;96720.28;;;9.93;87.59
58373;BME280;44177;43.356;27.672;2024-01-07T07:16:39;96734.69;;;9.90;87.50
58373;BME280;44177;43.356;27.672;2024-01-07T07:19:04;96707.78;;;9.85;87.80
58373;BME280;44177;43.356;27.672;2024-01-07T07:21:30;96712.94;;;9.97;87.32
58373;BME280;44177;43.356;27.672;2024-01-07T07:23:55;96716.84;;;10.00;87.24
58373;BME280;44177;43.356;27.672;2024-01-07T07:26:21;96707.53;;;10.04;86.91
58373;BME280;44177;43.356;27.672;2024-01-07T07:28:47;96710.66;;;10.06;86.88
58373;BME280;44177;43.356;27.672;2024-01-07T07:31:12;96714.22;;;10.14;87.22
58373;BME280;44177;43.356;27.672;2024-01-07T07:33:41;96737.19;;;10.17;87.56
58373;BME280;44177;43.356;27.672;2024-01-07T07:36:07;96739.59;;;10.22;88.32
58373;BME280;44177;43.356;27.672;2024-01-07T07:38:32;96748.06;;;10.13;89.85
58373;BME280;44177;43.356;27.672;2024-01-07T07:40:59;96741.50;;;10.18;89.44
58373;BME280;44177;43.356;27.672;2024-01-07T07:43:24;96742.34;;;10.25;88.08
58373;BME280;44177;43.356;27.672;2024-01-07T07:45:50;96744.22;;;10.18;87.54
58373;BME280;44177;43.356;27.672;2024-01-07T07:48:16;96754.00;;;10.26;87.53
58373;BME280;44177;43.356;27.672;2024-01-07T07:50:42;96756.34;;;10.27;86.55
58373;BME280;44177;43.356;27.672;2024-01-07T07:53:07;96731.28;;;10.07;82.29
58373;BME280;44177;43.356;27.672;2024-01-07T07:55:33;96769.72;;;10.43;80.46
58373;BME280;44177;43.356;27.672;2024-01-07T07:57:58;96761.22;;;10.56;77.59
58373;BME280;44177;43.356;27.672;2024-01-07T08:00:24;96736.31;;;10.57;76.56
58373;BME280;44177;43.356;27.672;2024-01-07T08:02:49;96742.63;;;10.83;76.61
58373;BME280;44177;43.356;27.672;2024-01-07T08:05:15;96767.25;;;10.98;74.81
58373;BME280;44177;43.356;27.672;2024-01-07T08:07:40;96766.09;;;11.02;75.18
58373;BME280;44177;43.356;27.672;2024-01-07T08:10:07;96766.06;;;10.95;74.40
58373;BME280;44177;43.356;27.672;2024-01-07T08:12:33;96756.75;;;11.03;74.82
58373;BME280;44177;43.356;27.672;2024-01-07T08:14:59;96731.78;;;11.01;74.18
58373;BME280;44177;43.356;27.672;2024-01-07T08:17:24;96747.41;;;11.12;75.12
58373;BME280;44177;43.356;27.672;2024-01-07T08:19:50;96738.81;;;11.10;74.48
58373;BME280;44177;43.356;27.672;2024-01-07T08:22:15;96739.63;;;11.14;75.12
58373;BME280;44177;43.356;27.672;2024-01-07T08:24:41;96738.06;;;11.13;73.73
58373;BME280;44177;43.356;27.672;2024-01-07T08:27:07;96727.91;;;11.06;73.34
58373;BME280;44177;43.356;27.672;2024-01-07T08:29:33;96737.28;;;11.09;72.54
58373;BME280;44177;43.356;27.672;2024-01-07T08:31:58;96733.34;;;11.02;72.82
58373;BME280;44177;43.356;27.672;2024-01-07T08:34:24;96720.88;;;11.05;72.40
58373;BME280;44177;43.356;27.672;2024-01-07T08:36:49;96717.78;;;11.03;74.17
58373;BME280;44177;43.356;27.672;2024-01-07T08:39:15;96690.47;;;10.99;74.35
58373;BME280;44177;43.356;27.672;2024-01-07T08:41:41;96731.78;;;11.01;74.64
58373;BME280;44177;43.356;27.672;2024-01-07T08:44:06;96722.78;;;10.90;75.98
58373;BME280;44177;43.356;27.672;2024-01-07T08:46:34;96715.00;;;10.88;75.65
58373;BME280;44177;43.356;27.672;2024-01-07T08:48:59;96706.78;;;10.81;78.25
58373;BME280;44177;43.356;27.672;2024-01-07T08:51:25;96702.50;;;10.77;78.36
58373;BME280;44177;43.356;27.672;2024-01-07T08:53:50;96698.97;;;10.72;78.44
58373;BME280;44177;43.356;27.672;2024-01-07T08:56:15;96687.28;;;10.76;77.53
58373;BME280;44177;43.356;27.672;2024-01-07T08:58:41;96699.38;;;10.82;76.53
58373;BME280;44177;43.356;27.672;2024-01-07T09:01:07;96684.19;;;10.81;76.80
58373;BME280;44177;43.356;27.672;2024-01-07T09:03:33;96692.75;;;10.79;75.84
58373;BME280;44177;43.356;27.672;2024-01-07T09:05:58;96667.03;;;10.77;77.60
58373;BME280;44177;43.356;27.672;2024-01-07T09:08:24;96638.94;;;10.72;77.16
58373;BME280;44177;43.356;27.672;2024-01-07T09:10:49;96658.84;;;10.73;76.92
58373;BME280;44177;43.356;27.672;2024-01-07T09:13:15;96640.53;;;10.73;77.74
58373;BME280;44177;43.356;27.672;2024-01-07T09:15:41;96656.16;;;10.91;77.59
58373;BME280;44177;43.356;27.672;2024-01-07T09:18:06;96666.31;;;11.05;77.54
58373;BME280;44177;43.356;27.672;2024-01-07T09:20:32;96693.66;;;11.52;75.21
58373;BME280;44177;43.356;27.672;2024-01-07T09:22:58;96694.84;;;11.76;73.97
58373;BME280;44177;43.356;27.672;2024-01-07T09:25:24;96696.81;;;11.61;74.03
58373;BME280;44177;43.356;27.672;2024-01-07T09:27:51;96680.41;;;11.58;74.93
58373;BME280;44177;43.356;27.672;2024-01-07T09:30:17;96694.47;;;11.78;74.73
58373;BME280;44177;43.356;27.672;2024-01-07T09:32:43;96691.31;;;11.90;73.97
58373;BME280;44177;43.356;27.672;2024-01-07T09:35:09;96701.84;;;12.24;73.63
58373;BME280;44177;43.356;27.672;2024-01-07T09:37:34;96701.38;;;12.55;72.96
58373;BME280;44177;43.356;27.672;2024-01-07T09:40:04;96695.25;;;12.07;71.92
58373;BME280;44177;43.356;27.672;2024-01-07T09:42:30;96688.19;;;11.88;74.69
58373;BME280;44177;43.356;27.672;2024-01-07T09:44:56;96678.44;;;11.73;75.78
58373;BME280;44177;43.356;27.672;2024-01-07T09:47:21;96689.38;;;11.62;75.46
58373;BME280;44177;43.356;27.672;2024-01-07T09:49:49;96699.94;;;11.71;74.75
58373;BME280;44177;43.356;27.672;2024-01-07T09:52:14;96701.50;;;11.72;76.62
58373;BME280;44177;43.356;27.672;2024-01-07T09:54:40;96686.25;;;11.31;77.71
58373;BME280;44177;43.356;27.672;2024-01-07T09:57:07;96676.13;;;11.31;78.49
58373;BME280;44177;43.356;27.672;2024-01-07T09:59:34;96680.34;;;11.00;79.02
58373;BME280;44177;43.356;27.672;2024-01-07T10:02:02;96674.88;;;11.03;80.30
58373;BME280;44177;43.356;27.672;2024-01-07T10:04:28;96664.03;;;11.36;79.83
58373;BME280;44177;43.356;27.672;2024-01-07T10:06:54;96642.94;;;11.47;78.97
58373;BME280;44177;43.356;27.672;2024-01-07T10:09:22;96630.88;;;11.52;79.84
58373;BME280;44177;43.356;27.672;2024-01-07T10:11:49;96636.72;;;11.32;80.39
58373;BME280;44177;43.356;27.672;2024-01-07T10:14:15;96645.28;;;11.34;80.37
58373;BME280;44177;43.356;27.672;2024-01-07T10:16:40;96647.94;;;12.21;77.60
58373;BME280;44177;43.356;27.672;2024-01-07T10:19:06;96623.03;;;11.76;79.22
58373;BME280;44177;43.356;27.672;2024-01-07T10:21:33;96617.59;;;11.68;79.52
58373;BME280;44177;43.356;27.672;2024-01-07T10:24:11;96607.44;;;11.51;80.61
58373;BME280;44177;43.356;27.672;2024-01-07T10:26:40;96616.81;;;11.50;79.89
58373;BME280;44177;43.356;27.672;2024-01-07T10:29:07;96603.94;;;11.50;80.52
58373;BME280;44177;43.356;27.672;2024-01-07T10:31:33;96599.59;;;11.89;79.37
58373;BME280;44177;43.356;27.672;2024-01-07T10:33:59;96601.50;;;12.14;78.00
58373;BME280;44177;43.356;27.672;2024-01-07T10:36:25;96572.66;;;11.88;79.47
58373;BME280;44177;43.356;27.672;2024-01-07T10:38:51;96563.09;;;12.46;76.76
58373;BME280;44177;43.356;27.672;2024-01-07T10:41:20;96557.06;;;13.30;74.12
58373;BME280;44177;43.356;27.672;2024-01-07T10:43:49;96553.75;;;13.49;72.23
58373;BME280;44177;43.356;27.672;2024-01-07T10:46:15;96553.31;;;13.54;72.11
58373;BME280;44177;43.356;27.672;2024-01-07T10:48:55;96551.25;;;13.66;71.20
58373;BME280;44177;43.356;27.672;2024-01-07T10:51:21;96563.25;;;15.74;63.75
58373;BME280;44177;43.356;27.672;2024-01-07T10:53:52;96548.09;;;16.83;57.99
58373;BME280;44177;43.356;27.672;2024-01-07T10:56:24;96552.88;;;16.99;56.35
58373;BME280;44177;43.356;27.672;2024-01-07T10:58:55;96524.41;;;16.69;57.34
58373;BME280;44177;43.356;27.672;2024-01-07T11:01:21;96548.53;;;16.82;55.68
58373;BME280;44177;43.356;27.672;2024-01-07T11:04:11;96542.53;;;17.03;54.53
58373;BME280;44177;43.356;27.672;2024-01-07T11:10:04;96512.25;;;17.03;55.67
58373;BME280;44177;43.356;27.672;2024-01-07T11:12:31;96501.75;;;17.15;53.42
58373;BME280;44177;43.356;27.672;2024-01-07T11:14:57;96493.22;;;16.93;53.39
58373;BME280;44177;43.356;27.672;2024-01-07T11:17:40;96497.84;;;16.79;54.07
58373;BME280;44177;43.356;27.672;2024-01-07T11:20:16;96467.50;;;15.29;57.93
58373;BME280;44177;43.356;27.672;2024-01-07T11:22:43;96495.16;;;15.18;59.67
58373;BME280;44177;43.356;27.672;2024-01-07T11:28:00;96515.72;;;13.13;69.34
58373;BME280;44177;43.356;27.672;2024-01-07T11:30:26;96502.22;;;13.40;69.29
58373;BME280;44177;43.356;27.672;2024-01-07T11:32:59;96509.56;;;13.02;70.32
58373;BME280;44177;43.356;27.672;2024-01-07T11:38:18;96478.00;;;12.34;73.05
58373;BME280;44177;43.356;27.672;2024-01-07T11:40:44;96481.88;;;12.36;74.15
58373;BME280;44177;43.356;27.672;2024-01-07T11:43:11;96484.44;;;12.02;75.07
58373;BME280;44177;43.356;27.672;2024-01-07T11:45:36;96491.34;;;12.24;75.17
58373;BME280;44177;43.356;27.672;2024-01-07T11:48:02;96496.31;;;12.37;73.56
58373;BME280;44177;43.356;27.672;2024-01-07T11:50:28;96487.44;;;12.22;75.24
58373;BME280;44177;43.356;27.672;2024-01-07T11:52:53;96476.91;;;12.20;75.00
58373;BME280;44177;43.356;27.672;2024-01-07T11:55:19;96470.13;;;12.39;75.12
58373;BME280;44177;43.356;27.672;2024-01-07T11:57:46;96473.22;;;12.45;74.75
58373;BME280;44177;43.356;27.672;2024-01-07T12:00:11;96476.38;;;12.43;74.57
58373;BME280;44177;43.356;27.672;2024-01-07T12:02:37;96497.88;;;12.38;75.78
58373;BME280;44177;43.356;27.672;2024-01-07T12:05:03;96514.22;;;12.52;75.80
58373;BME280;44177;43.356;27.672;2024-01-07T12:07:29;96493.63;;;12.29;74.59
58373;BME280;44177;43.356;27.672;2024-01-07T12:09:58;96512.41;;;12.31;76.28
58373;BME280;44177;43.356;27.672;2024-01-07T12:12:24;96515.88;;;12.35;74.87
58373;BME280;44177;43.356;27.672;2024-01-07T12:14:50;96513.94;;;12.32;74.68
58373;BME280;44177;43.356;27.672;2024-01-07T12:17:19;96514.78;;;12.22;75.04
58373;BME280;44177;43.356;27.672;2024-01-07T12:19:45;96501.59;;;11.98;73.10
58373;BME280;44177;43.356;27.672;2024-01-07T12:22:10;96527.34;;;12.05;73.47
58373;BME280;44177;43.356;27.672;2024-01-07T12:24:36;96529.25;;;12.19;73.00
58373;BME280;44177;43.356;27.672;2024-01-07T12:27:05;96520.69;;;12.06;73.97
58373;BME280;44177;43.356;27.672;2024-01-07T12:29:31;96522.69;;;12.02;75.10
58373;BME280;44177;43.356;27.672;2024-01-07T12:31:56;96517.19;;;12.05;75.74
58373;BME280;44177;43.356;27.672;2024-01-07T12:34:21;96523.47;;;11.98;76.79
58373;BME280;44177;43.356;27.672;2024-01-07T12:36:50;96519.63;;;11.78;77.36
58373;BME280;44177;43.356;27.672;2024-01-07T12:39:16;96514.56;;;11.65;76.52
58373;BME280;44177;43.356;27.672;2024-01-07T12:41:42;96527.50;;;11.54;76.34
58373;BME280;44177;43.356;27.672;2024-01-07T12:44:07;96529.81;;;11.52;76.91
58373;BME280;44177;43.356;27.672;2024-01-07T12:46:34;96531.78;;;11.41;77.46
58373;BME280;44177;43.356;27.672;2024-01-07T12:49:00;96532.97;;;11.36;76.10
58373;BME280;44177;43.356;27.672;2024-01-07T12:51:25;96531.44;;;11.31;77.01
58373;BME280;44177;43.356;27.672;2024-01-07T12:53:51;96525.97;;;11.28;77.43
58373;BME280;44177;43.356;27.672;2024-01-07T12:56:17;96528.31;;;11.29;76.93